createdAt,value
2019-05-29T00:01:18.558Z,99445.91
2019-05-29T00:03:45.530Z,99442.95
2019-05-29T00:06:16.807Z,99449.85
2019-05-29T00:08:46.607Z,99443.88
2019-05-29T00:11:16.350Z,99456.12
2019-05-29T00:13:46.239Z,99452.13
2019-05-29T00:16:15.952Z,99460.50
2019-05-29T00:18:45.719Z,99465.14
2019-05-29T00:21:15.366Z,99460.22
2019-05-29T00:23:45.038Z,99461.23
2019-05-29T00:26:14.668Z,99466.41
2019-05-29T00:28:44.437Z,99466.50
2019-05-29T00:31:14.091Z,99467.97
2019-05-29T00:33:44.783Z,99469.09
2019-05-29T00:36:14.667Z,99463.35
2019-05-29T00:38:44.435Z,99471.82
2019-05-29T00:41:15.079Z,99480.54
2019-05-29T00:43:45.595Z,99476.30
2019-05-29T00:46:15.608Z,99475.42
2019-05-29T00:48:45.263Z,99472.38
2019-05-29T00:51:15.193Z,99474.97
2019-05-29T00:53:45.011Z,99474.09
2019-05-29T00:56:14.740Z,99478.09
2019-05-29T00:58:44.595Z,99479.42
2019-05-29T01:01:15.465Z,99484.77
2019-05-29T01:03:45.331Z,99475.05
2019-05-29T01:06:15.999Z,99484.47
2019-05-29T01:08:45.925Z,99489.02
2019-05-29T01:11:16.811Z,99493.70
2019-05-29T01:13:46.641Z,99494.19
2019-05-29T01:16:17.481Z,99496.53
2019-05-29T01:18:47.511Z,99500.69
2019-05-29T01:21:17.988Z,99505.70
2019-05-29T01:23:49.692Z,99510.78
2019-05-29T01:26:19.363Z,99509.61
2019-05-29T01:28:49.384Z,99510.62
2019-05-29T01:31:19.358Z,99515.08
2019-05-29T01:33:49.027Z,99520.08
2019-05-29T01:36:20.018Z,99516.33
2019-05-29T01:38:49.879Z,99521.74
2019-05-29T01:41:19.480Z,99522.58
2019-05-29T01:43:49.179Z,99525.91
2019-05-29T01:46:19.760Z,99525.83
2019-05-29T01:48:49.409Z,99527.16
2019-05-29T01:51:19.545Z,99527.54
2019-05-29T01:53:49.215Z,99528.41
2019-05-29T01:56:21.707Z,99527.48
2019-05-29T01:58:50.341Z,99530.33
2019-05-29T02:01:20.070Z,99530.87
2019-05-29T02:03:50.036Z,99534.03
2019-05-29T02:06:20.036Z,99537.33
2019-05-29T02:08:49.856Z,99534.90
2019-05-29T02:11:19.701Z,99541.44
2019-05-29T02:13:49.369Z,99544.34
2019-05-29T02:16:20.584Z,99545.98
2019-05-29T02:18:50.425Z,99547.47
2019-05-29T02:21:20.226Z,99550.09
2019-05-29T02:23:50.044Z,99551.34
2019-05-29T02:26:20.575Z,99555.34
2019-05-29T02:28:50.363Z,99560.98
2019-05-29T02:31:21.950Z,99560.92
2019-05-29T02:33:51.551Z,99566.01
2019-05-29T02:36:22.353Z,99567.41
2019-05-29T02:38:52.117Z,99571.48
2019-05-29T02:41:24.106Z,99566.55
2019-05-29T02:43:53.479Z,99567.80
2019-05-29T02:46:23.935Z,99559.92
2019-05-29T02:48:54.516Z,99568.10
2019-05-29T02:51:24.829Z,99570.53
2019-05-29T02:53:55.934Z,99577.66
2019-05-29T02:56:27.029Z,99579.88
2019-05-29T02:58:57.061Z,99575.87
2019-05-29T03:01:27.792Z,99576.74
2019-05-29T03:03:58.619Z,99582.00
2019-05-29T03:06:30.149Z,99582.08
2019-05-29T03:09:00.717Z,99584.25
2019-05-29T03:11:31.204Z,99584.34
2019-05-29T03:14:03.873Z,99590.09
2019-05-29T03:16:34.857Z,99601.31
2019-05-29T03:19:05.441Z,99597.58
2019-05-29T03:21:36.108Z,99600.08
2019-05-29T03:24:06.622Z,99600.30
2019-05-29T03:26:38.407Z,99606.67
2019-05-29T03:29:09.007Z,99617.56
2019-05-29T03:31:46.495Z,99611.64
2019-05-29T03:34:12.527Z,99615.88
2019-05-29T03:36:47.852Z,99616.63
2019-05-29T03:39:15.657Z,99624.08
2019-05-29T03:41:46.365Z,99617.80
2019-05-29T03:44:17.219Z,99624.47
2019-05-29T03:46:47.946Z,99623.00
2019-05-29T03:49:18.554Z,99631.22
2019-05-29T03:51:49.092Z,99629.69
2019-05-29T03:54:21.275Z,99633.78
2019-05-29T03:56:51.450Z,99637.90
2019-05-29T03:59:21.969Z,99640.24
2019-05-29T04:01:52.562Z,99647.91
2019-05-29T04:04:22.930Z,99644.89
2019-05-29T04:06:53.503Z,99645.44
2019-05-29T04:09:24.272Z,99648.97
2019-05-29T04:11:54.779Z,99646.33
2019-05-29T04:14:27.595Z,99650.33
2019-05-29T04:17:01.027Z,99650.34
2019-05-29T04:19:32.635Z,99650.50
2019-05-29T04:22:13.602Z,99654.58
2019-05-29T04:24:45.703Z,99650.67
2019-05-29T04:27:21.351Z,99661.66
2019-05-29T04:29:53.430Z,99664.77
2019-05-29T04:32:23.633Z,99670.30
2019-05-29T04:34:54.448Z,99678.61
2019-05-29T04:37:25.044Z,99679.86
2019-05-29T04:39:55.584Z,99685.20
2019-05-29T04:42:26.187Z,99686.95
2019-05-29T04:44:56.733Z,99694.88
2019-05-29T04:47:28.801Z,99695.05
2019-05-29T04:49:59.585Z,99693.17
2019-05-29T04:52:31.359Z,99694.88
2019-05-29T04:55:01.971Z,99701.34
2019-05-29T04:57:32.833Z,99702.59
2019-05-29T05:00:03.505Z,99703.84
2019-05-29T05:02:35.062Z,99712.00
2019-05-29T05:05:07.373Z,99712.00
2019-05-29T05:07:38.046Z,99711.72
2019-05-29T05:10:09.495Z,99715.09
2019-05-29T05:12:40.658Z,99718.14
2019-05-29T05:15:11.366Z,99716.45
2019-05-29T05:17:41.683Z,99717.94
2019-05-29T05:20:12.174Z,99728.17
2019-05-29T05:22:42.840Z,99733.02
2019-05-29T05:25:13.424Z,99735.23
2019-05-29T05:27:43.921Z,99732.88
2019-05-29T05:30:14.494Z,99738.17
2019-05-29T05:32:48.167Z,99739.24
2019-05-29T05:35:19.075Z,99739.88
2019-05-29T05:37:49.511Z,99741.69
2019-05-29T05:40:20.186Z,99744.04
2019-05-29T05:42:50.695Z,99749.48
2019-05-29T05:45:21.331Z,99749.95
2019-05-29T05:47:57.420Z,99745.55
2019-05-29T05:50:24.616Z,99757.83
2019-05-29T05:52:55.055Z,99754.74
2019-05-29T05:55:25.450Z,99760.61
2019-05-29T05:57:55.911Z,99765.03
2019-05-29T06:00:35.803Z,99768.72
2019-05-29T06:03:07.155Z,99772.50
2019-05-29T06:05:38.284Z,99778.22
2019-05-29T06:08:08.992Z,99782.19
2019-05-29T06:10:40.247Z,99782.41
2019-05-29T06:13:11.170Z,99781.48
2019-05-29T06:15:42.955Z,99780.18
2019-05-29T06:18:21.154Z,99779.99
2019-05-29T06:20:45.934Z,99789.78
2019-05-29T06:23:16.453Z,99781.41
2019-05-29T06:25:47.014Z,99783.34
2019-05-29T06:28:17.717Z,99781.25
2019-05-29T06:30:48.178Z,99778.45
2019-05-29T06:33:18.807Z,99784.16
2019-05-29T06:35:49.361Z,99785.27
2019-05-29T06:38:20.301Z,99783.30
2019-05-29T06:40:50.684Z,99789.87
2019-05-29T06:43:25.868Z,99792.09
2019-05-29T06:45:57.564Z,99794.59
2019-05-29T06:48:46.244Z,99790.36
2019-05-29T06:51:05.393Z,99795.67
2019-05-29T06:53:35.800Z,99792.33
2019-05-29T06:56:06.399Z,99798.52
2019-05-29T06:58:38.084Z,99801.31
2019-05-29T07:01:08.978Z,99798.52
2019-05-29T07:03:41.757Z,99796.34
2019-05-29T07:06:12.354Z,99800.37
2019-05-29T07:08:46.457Z,99803.92
2019-05-29T07:11:16.476Z,99811.91
2019-05-29T07:13:50.121Z,99809.11
2019-05-29T07:16:19.656Z,99806.05
2019-05-29T07:19:23.985Z,99815.16
2019-05-29T07:21:22.164Z,99814.20
2019-05-29T07:23:52.927Z,99822.28
2019-05-29T07:26:23.361Z,99820.85
2019-05-29T07:29:06.579Z,99828.70
2019-05-29T07:31:26.202Z,99827.93
2019-05-29T07:33:56.824Z,99832.78
2019-05-29T07:36:27.316Z,99827.96
2019-05-29T07:39:03.710Z,99834.19
2019-05-29T07:41:30.060Z,99832.26
2019-05-29T07:44:00.641Z,99834.84
2019-05-29T07:46:30.841Z,99829.57
2019-05-29T07:49:00.927Z,99838.05
2019-05-29T07:51:31.259Z,99835.67
2019-05-29T07:54:01.578Z,99833.70
2019-05-29T07:56:32.038Z,99835.98
2019-05-29T07:59:03.634Z,99840.77
2019-05-29T08:01:34.082Z,99841.30
2019-05-29T08:04:04.275Z,99838.19
2019-05-29T08:06:34.596Z,99837.20
2019-05-29T08:09:06.222Z,99837.72
2019-05-29T08:11:36.264Z,99844.09
2019-05-29T08:14:06.500Z,99841.77
2019-05-29T08:16:36.807Z,99843.78
2019-05-29T08:19:08.098Z,99841.50
2019-05-29T08:21:38.488Z,99846.19
2019-05-29T08:24:08.815Z,99840.84
2019-05-29T08:26:40.653Z,99841.41
2019-05-29T08:29:11.133Z,99838.20
2019-05-29T08:31:42.662Z,99845.45
2019-05-29T08:34:13.067Z,99842.50
2019-05-29T08:36:59.986Z,99837.45
2019-05-29T08:39:33.456Z,99837.73
2019-05-29T08:42:20.639Z,99832.11
2019-05-29T08:44:20.360Z,99838.16
2019-05-29T08:47:06.341Z,99838.46
2019-05-29T08:49:22.497Z,99848.42
2019-05-29T08:52:10.202Z,99837.11
2019-05-29T08:54:24.603Z,99843.91
2019-05-29T08:56:55.037Z,99844.29
2019-05-29T08:59:25.265Z,99841.83
2019-05-29T09:01:55.702Z,99840.45
2019-05-29T09:04:26.181Z,99841.00
2019-05-29T09:06:56.489Z,99846.81
2019-05-29T09:09:26.845Z,99840.69
2019-05-29T09:11:57.226Z,99835.42
2019-05-29T09:14:27.454Z,99839.41
2019-05-29T09:16:58.039Z,99846.00
2019-05-29T09:19:28.232Z,99846.38
2019-05-29T09:21:58.835Z,99845.48
2019-05-29T09:24:29.099Z,99848.66
2019-05-29T09:26:59.648Z,99852.20
2019-05-29T09:29:29.873Z,99851.92
2019-05-29T09:32:00.231Z,99853.02
2019-05-29T09:34:30.649Z,99853.48
2019-05-29T09:37:00.889Z,99858.27
2019-05-29T09:39:30.980Z,99862.56
2019-05-29T09:42:01.255Z,99865.92
2019-05-29T09:44:38.809Z,99874.66
2019-05-29T09:47:03.605Z,99872.33
2019-05-29T09:49:34.026Z,99880.39
2019-05-29T09:52:04.319Z,99878.61
2019-05-29T09:54:34.890Z,99880.55
2019-05-29T09:57:05.410Z,99884.00
2019-05-29T09:59:35.611Z,99884.75
2019-05-29T10:02:08.956Z,99886.27
2019-05-29T10:04:37.627Z,99878.69
2019-05-29T10:07:08.092Z,99886.34
2019-05-29T10:09:38.369Z,99887.85
2019-05-29T10:12:08.847Z,99886.54
2019-05-29T10:14:38.864Z,99892.37
2019-05-29T10:17:12.736Z,99884.75
2019-05-29T10:19:40.976Z,99887.48
2019-05-29T10:22:11.117Z,99890.39
2019-05-29T10:24:41.571Z,99895.29
2019-05-29T10:27:11.785Z,99893.70
2019-05-29T10:29:42.474Z,99901.16
2019-05-29T10:32:12.847Z,99892.55
2019-05-29T10:34:44.234Z,99893.98
2019-05-29T10:37:17.945Z,99896.34
2019-05-29T10:39:47.195Z,99902.94
2019-05-29T10:42:20.535Z,99900.18
2019-05-29T10:44:51.154Z,99891.59
2019-05-29T10:47:21.592Z,99895.40
2019-05-29T10:49:51.853Z,99889.28
2019-05-29T10:52:22.040Z,99891.77
2019-05-29T10:54:52.521Z,99886.52
2019-05-29T10:57:22.688Z,99886.47
2019-05-29T10:59:53.005Z,99868.86
2019-05-29T11:02:23.134Z,99872.17
2019-05-29T11:04:56.457Z,99869.52
2019-05-29T11:07:25.290Z,99865.55
2019-05-29T11:09:56.225Z,99871.42
2019-05-29T11:12:26.800Z,99860.41
2019-05-29T11:14:57.067Z,99860.55
2019-05-29T11:17:27.504Z,99861.70
2019-05-29T11:19:58.321Z,99865.96
2019-05-29T11:22:28.716Z,99864.70
2019-05-29T11:25:18.834Z,99869.48
2019-05-29T11:27:30.684Z,99872.97
2019-05-29T11:30:00.922Z,99880.45
2019-05-29T11:32:31.214Z,99882.35
2019-05-29T11:35:02.247Z,99886.03
2019-05-29T11:37:32.661Z,99881.09
2019-05-29T11:40:03.335Z,99879.74
2019-05-29T11:42:33.645Z,99877.38
2019-05-29T11:45:05.400Z,99881.28
2019-05-29T11:47:35.719Z,99872.32
2019-05-29T11:50:19.673Z,99880.38
2019-05-29T11:52:45.897Z,99881.39
2019-05-29T11:55:16.626Z,99874.83
2019-05-29T11:57:47.033Z,99874.22
2019-05-29T12:00:20.729Z,99875.34
2019-05-29T12:02:51.278Z,99870.38
2019-05-29T12:05:22.064Z,99869.89
2019-05-29T12:07:53.495Z,99864.80
2019-05-29T12:10:24.128Z,99854.38
2019-05-29T12:12:55.429Z,99846.70
2019-05-29T12:15:25.840Z,99844.96
2019-05-29T12:18:18.490Z,99845.36
2019-05-29T12:20:29.113Z,99847.45
2019-05-29T12:23:18.605Z,99841.61
2019-05-29T12:25:31.450Z,99835.56
2019-05-29T12:28:03.238Z,99832.02
2019-05-29T12:30:34.248Z,99835.78
2019-05-29T12:33:04.756Z,99835.36
2019-05-29T12:35:35.105Z,99842.31
2019-05-29T12:38:05.609Z,99841.95
2019-05-29T12:40:35.971Z,99849.73
2019-05-29T12:43:06.800Z,99859.16
2019-05-29T12:45:37.234Z,99857.44
2019-05-29T12:48:13.288Z,99860.31
2019-05-29T12:50:39.474Z,99858.25
2019-05-29T12:53:09.797Z,99861.27
2019-05-29T12:55:40.609Z,99861.40
2019-05-29T12:58:10.982Z,99842.39
2019-05-29T13:00:41.580Z,99854.33
2019-05-29T13:03:11.743Z,99851.70
2019-05-29T13:05:43.751Z,99835.64
2019-05-29T13:08:14.225Z,99838.12
2019-05-29T13:10:44.698Z,99837.94
2019-05-29T13:13:15.288Z,99841.37
2019-05-29T13:15:46.077Z,99833.95
2019-05-29T13:18:16.586Z,99835.81
2019-05-29T13:20:47.093Z,99829.51
2019-05-29T13:23:17.445Z,99835.41
2019-05-29T13:25:47.962Z,99835.53
2019-05-29T13:28:18.069Z,99839.80
2019-05-29T13:30:48.492Z,99843.98
2019-05-29T13:33:18.604Z,99842.68
2019-05-29T13:35:48.644Z,99845.78
2019-05-29T13:38:19.042Z,99853.38
2019-05-29T13:40:49.307Z,99846.22
2019-05-29T13:43:19.868Z,99853.03
2019-05-29T13:45:50.545Z,99856.61
2019-05-29T13:48:23.386Z,99852.25
2019-05-29T13:50:52.871Z,99849.53
2019-05-29T13:53:23.511Z,99849.82
2019-05-29T13:55:53.819Z,99841.14
2019-05-29T13:58:24.017Z,99830.68
2019-05-29T14:00:55.412Z,99828.95
2019-05-29T14:03:25.749Z,99827.42
2019-05-29T14:05:56.031Z,99821.53
2019-05-29T14:08:26.134Z,99825.38
2019-05-29T14:10:56.485Z,99820.93
2019-05-29T14:13:26.971Z,99827.61
2019-05-29T14:15:57.428Z,99827.02
2019-05-29T14:18:27.974Z,99824.89
2019-05-29T14:20:58.381Z,99820.02
2019-05-29T14:23:28.929Z,99825.94
2019-05-29T14:26:00.411Z,99828.59
2019-05-29T14:28:30.776Z,99826.21
2019-05-29T14:31:01.980Z,99825.36
2019-05-29T14:33:32.474Z,99838.24
2019-05-29T14:36:03.429Z,99843.38
2019-05-29T14:38:34.363Z,99844.78
2019-05-29T14:41:05.700Z,99844.19
2019-05-29T14:43:36.660Z,99841.73
2019-05-29T14:46:08.117Z,99837.72
2019-05-29T14:48:38.852Z,99836.04
2019-05-29T14:51:08.994Z,99824.50
2019-05-29T14:53:39.162Z,99813.06
2019-05-29T14:56:10.592Z,99817.72
2019-05-29T14:58:41.243Z,99819.75
2019-05-29T15:01:11.566Z,99819.75
2019-05-29T15:03:41.734Z,99824.57
2019-05-29T15:06:11.797Z,99830.58
2019-05-29T15:08:42.497Z,99842.11
2019-05-29T15:11:14.097Z,99839.09
2019-05-29T15:13:45.122Z,99838.58
2019-05-29T15:16:15.547Z,99841.81
2019-05-29T15:18:46.195Z,99836.37
2019-05-29T15:21:16.939Z,99842.82
2019-05-29T15:23:47.143Z,99846.16
2019-05-29T15:26:17.227Z,99847.22
2019-05-29T15:28:47.762Z,99850.95
2019-05-29T15:31:18.525Z,99852.33
2019-05-29T15:33:49.000Z,99859.35
2019-05-29T15:36:19.504Z,99851.48
2019-05-29T15:38:49.763Z,99851.88
2019-05-29T15:41:20.190Z,99858.23
2019-05-29T15:43:50.765Z,99851.77
2019-05-29T15:46:21.035Z,99851.50
2019-05-29T15:48:51.989Z,99855.28
2019-05-29T15:51:22.714Z,99848.83
2019-05-29T15:53:53.336Z,99842.38
2019-05-29T15:56:27.897Z,99844.28
2019-05-29T15:58:56.167Z,99843.66
2019-05-29T16:01:26.523Z,99844.37
2019-05-29T16:03:57.450Z,99844.94
2019-05-29T16:06:27.893Z,99846.92
2019-05-29T16:08:58.511Z,99839.46
2019-05-29T16:11:28.933Z,99849.77
2019-05-29T16:13:59.695Z,99841.91
2019-05-29T16:16:30.242Z,99845.00
2019-05-29T16:19:00.664Z,99842.91
2019-05-29T16:21:30.975Z,99837.06
2019-05-29T16:24:01.269Z,99839.06
2019-05-29T16:26:31.919Z,99842.92
2019-05-29T16:29:04.106Z,99835.77
2019-05-29T16:31:34.665Z,99836.20
2019-05-29T16:34:04.995Z,99845.10
2019-05-29T16:36:35.609Z,99851.36
2019-05-29T16:39:08.855Z,99849.95
2019-05-29T16:41:39.811Z,99848.92
2019-05-29T16:44:11.921Z,99851.03
2019-05-29T16:46:42.395Z,99850.44
2019-05-29T16:49:12.756Z,99855.09
2019-05-29T16:51:42.975Z,99862.22
2019-05-29T16:54:13.263Z,99848.11
2019-05-29T16:56:44.196Z,99846.38
2019-05-29T16:59:14.910Z,99849.55
2019-05-29T17:01:45.199Z,99852.46
2019-05-29T17:04:15.929Z,99863.28
2019-05-29T17:06:46.689Z,99858.82
2019-05-29T17:09:18.276Z,99859.97
2019-05-29T17:11:48.691Z,99859.00
2019-05-29T17:14:19.154Z,99864.11
2019-05-29T17:16:49.791Z,99868.73
2019-05-29T17:19:20.735Z,99868.11
2019-05-29T17:21:52.692Z,99868.28
2019-05-29T17:24:23.428Z,99869.86
2019-05-29T17:26:55.009Z,99869.05
2019-05-29T17:29:25.856Z,99872.88
2019-05-29T17:31:56.571Z,99870.05
2019-05-29T17:34:27.248Z,99871.21
2019-05-29T17:36:59.568Z,99874.30
2019-05-29T17:39:50.389Z,99876.72
2019-05-29T17:42:22.448Z,99881.98
2019-05-29T17:44:52.672Z,99877.56
2019-05-29T17:47:23.641Z,99879.92
2019-05-29T17:49:53.937Z,99876.74
2019-05-29T17:52:24.041Z,99883.77
2019-05-29T17:54:54.671Z,99886.00
2019-05-29T17:57:25.979Z,99884.86
2019-05-29T17:59:56.716Z,99886.61
2019-05-29T18:02:27.187Z,99891.44
2019-05-29T18:04:57.923Z,99894.14
2019-05-29T18:07:28.140Z,99899.95
2019-05-29T18:09:59.215Z,99899.08
2019-05-29T18:12:30.023Z,99903.01
2019-05-29T18:15:00.724Z,99904.20
2019-05-29T18:17:31.217Z,99909.00
2019-05-29T18:20:01.745Z,99912.92
2019-05-29T18:22:32.194Z,99909.22
2019-05-29T18:25:02.769Z,99910.43
2019-05-29T18:27:33.437Z,99912.52
2019-05-29T18:30:04.035Z,99913.58
2019-05-29T18:32:34.267Z,99917.87
2019-05-29T18:35:06.318Z,99917.34
2019-05-29T18:37:37.236Z,99918.39
2019-05-29T18:40:12.497Z,99916.68
2019-05-29T18:42:42.110Z,99921.92
2019-05-29T18:45:20.761Z,99916.70
2019-05-29T18:47:47.141Z,99916.14
2019-05-29T18:50:21.370Z,99919.00
2019-05-29T18:52:51.947Z,99924.13
2019-05-29T18:55:22.794Z,99929.43
2019-05-29T18:57:53.183Z,99938.00
2019-05-29T19:00:25.340Z,99933.25
2019-05-29T19:02:55.972Z,99929.01
2019-05-29T19:05:26.147Z,99941.70
2019-05-29T19:07:56.656Z,99934.88
2019-05-29T19:10:27.715Z,99938.34
2019-05-29T19:12:58.310Z,99946.39
2019-05-29T19:15:30.074Z,99945.81
2019-05-29T19:18:00.622Z,99946.17
2019-05-29T19:20:32.539Z,99952.91
2019-05-29T19:23:02.871Z,99957.09
2019-05-29T19:25:33.369Z,99951.52
2019-05-29T19:28:04.242Z,99961.18
2019-05-29T19:30:34.852Z,99967.27
2019-05-29T19:33:05.073Z,99967.20
2019-05-29T19:35:35.428Z,99976.81
2019-05-29T19:38:05.870Z,99978.49
2019-05-29T19:40:36.130Z,99971.58
2019-05-29T19:43:06.264Z,99973.69
2019-05-29T19:45:36.400Z,99981.27
2019-05-29T19:48:06.999Z,99986.07
2019-05-29T19:50:37.251Z,99992.03
2019-05-29T19:53:07.245Z,99998.01
2019-05-29T19:55:38.382Z,99999.17
2019-05-29T19:58:08.792Z,100003.51
2019-05-29T20:00:39.403Z,100002.45
2019-05-29T20:03:09.337Z,100003.62
2019-05-29T20:05:38.976Z,100005.26
2019-05-29T20:08:09.133Z,100000.45
2019-05-29T20:10:38.997Z,100014.53
2019-05-29T20:13:08.733Z,100013.59
2019-05-29T20:15:38.735Z,100021.45
2019-05-29T20:18:08.443Z,100019.63
2019-05-29T20:20:38.747Z,100022.44
2019-05-29T20:23:08.580Z,100023.59
2019-05-29T20:25:39.054Z,100028.50
2019-05-29T20:28:08.933Z,100027.08
2019-05-29T20:30:38.823Z,100033.61
2019-05-29T20:33:08.632Z,100036.11
2019-05-29T20:35:39.146Z,100038.62
2019-05-29T20:38:09.106Z,100036.80
2019-05-29T20:40:39.452Z,100035.19
2019-05-29T20:43:09.357Z,100042.45
2019-05-29T20:45:39.727Z,100044.58
2019-05-29T20:48:09.793Z,100047.33
2019-05-29T20:50:39.661Z,100048.36
2019-05-29T20:53:09.666Z,100049.56
2019-05-29T20:55:39.865Z,100043.08
2019-05-29T20:58:23.517Z,100047.33
2019-05-29T21:00:42.337Z,100051.36
2019-05-29T21:03:12.326Z,100050.53
2019-05-29T21:05:42.875Z,100049.95
2019-05-29T21:08:12.948Z,100056.88
2019-05-29T21:10:43.599Z,100052.64
2019-05-29T21:13:13.837Z,100057.72
2019-05-29T21:15:43.837Z,100065.16
2019-05-29T21:18:13.598Z,100063.52
2019-05-29T21:20:44.621Z,100071.69
2019-05-29T21:23:14.806Z,100071.20
2019-05-29T21:25:44.954Z,100077.91
2019-05-29T21:28:14.758Z,100073.72
2019-05-29T21:30:45.591Z,100077.08
2019-05-29T21:33:15.626Z,100086.29
2019-05-29T21:35:46.362Z,100085.98
2019-05-29T21:38:16.361Z,100086.49
2019-05-29T21:40:46.723Z,100087.19
2019-05-29T21:43:16.759Z,100087.69
2019-05-29T21:45:47.275Z,100087.54
2019-05-29T21:48:17.148Z,100095.76
2019-05-29T21:50:47.445Z,100101.44
2019-05-29T21:53:17.259Z,100101.52
2019-05-29T21:55:47.831Z,100098.11
2019-05-29T21:58:17.829Z,100096.32
2019-05-29T22:00:50.458Z,100098.91
2019-05-29T22:03:20.581Z,100095.22
2019-05-29T22:05:50.869Z,100107.17
2019-05-29T22:08:20.679Z,100103.62
2019-05-29T22:10:51.434Z,100105.92
2019-05-29T22:13:21.375Z,100109.48
2019-05-29T22:15:51.032Z,100109.31
2019-05-29T22:18:21.004Z,100114.97
2019-05-29T22:20:51.138Z,100113.94
2019-05-29T22:23:21.373Z,100119.75
2019-05-29T22:25:51.339Z,100108.66
2019-05-29T22:28:21.320Z,100113.86
2019-05-29T22:30:51.362Z,100110.79
2019-05-29T22:33:21.387Z,100112.00
2019-05-29T22:35:52.675Z,100110.70
2019-05-29T22:38:22.830Z,100114.81
2019-05-29T22:40:53.788Z,100112.63
2019-05-29T22:43:23.889Z,100107.08
2019-05-29T22:45:53.821Z,100113.55
2019-05-29T22:48:23.587Z,100118.12
2019-05-29T22:50:53.923Z,100116.28
2019-05-29T22:53:23.932Z,100116.61
2019-05-29T22:55:53.869Z,100113.08
2019-05-29T22:58:23.518Z,100108.63
2019-05-29T23:00:53.950Z,100115.45
2019-05-29T23:03:23.895Z,100106.20
2019-05-29T23:05:54.276Z,100110.86
2019-05-29T23:08:24.338Z,100113.59
2019-05-29T23:10:54.558Z,100114.27
2019-05-29T23:13:24.583Z,100111.76
2019-05-29T23:15:54.562Z,100112.38
2019-05-29T23:18:24.579Z,100110.91
2019-05-29T23:20:54.549Z,100109.09
2019-05-29T23:23:24.569Z,100112.23
2019-05-29T23:25:54.564Z,100111.52
2019-05-29T23:28:24.665Z,100105.30
2019-05-29T23:30:54.653Z,100111.03
2019-05-29T23:33:24.630Z,100109.38
2019-05-29T23:35:54.841Z,100104.19
2019-05-29T23:38:24.666Z,100114.11
2019-05-29T23:40:55.252Z,100110.16
2019-05-29T23:43:25.417Z,100113.09
2019-05-29T23:45:55.383Z,100108.98
2019-05-29T23:48:25.360Z,100109.70
2019-05-29T23:50:55.584Z,100113.86
2019-05-29T23:53:25.452Z,100112.81
2019-05-29T23:55:55.752Z,100116.33
2019-05-29T23:58:25.595Z,100114.36
